Time;durP1;ratioP1;P1;durP2;ratioP2;P2;SDS_P1;SDS_P2;PMS_P1;PMS_P2;Temp;Humidity;BMP_temperature;BMP_pressure;BME280_temperature;BME280_humidity;BME280_pressure;Samples;Min_cycle;Max_cycle;Signal;HPM_P1;HPM_P2
2023/09/18 00:00:23;;;;;;;16.50;8.50;;;;;;;17.16;100.00;100078.27;109350;1253;60776;-63
2023/09/18 00:03:29;;;;;;;18.30;9.50;;;;;;;17.13;100.00;100076.58;109617;1252;62632;-64
2023/09/18 00:06:15;;;;;;;18.40;9.50;;;;;;;17.13;100.00;100076.78;109382;1253;72823;-64
2023/09/18 00:09:02;;;;;;;17.30;9.70;;;;;;;17.12;100.00;100075.40;109573;1252;66823;-64
2023/09/18 00:11:49;;;;;;;17.10;9.10;;;;;;;17.11;100.00;100073.85;109470;1253;71082;-63
2023/09/18 00:14:36;;;;;;;17.10;8.80;;;;;;;17.11;100.00;100077.85;109576;1252;58117;-64
2023/09/18 00:17:23;;;;;;;18.10;9.30;;;;;;;17.11;100.00;100075.52;109600;1253;58957;-64
2023/09/18 00:20:11;;;;;;;20.60;10.50;;;;;;;17.13;100.00;100080.20;109594;1252;72910;-63
2023/09/18 00:22:57;;;;;;;20.50;9.90;;;;;;;17.13;100.00;100081.18;109487;1254;68781;-63
2023/09/18 00:25:44;;;;;;;17.00;8.80;;;;;;;17.13;100.00;100078.11;109561;1253;73682;-63
2023/09/18 00:28:31;;;;;;;22.70;10.10;;;;;;;17.14;100.00;100078.56;109571;1254;58821;-65
2023/09/18 00:31:17;;;;;;;19.10;10.20;;;;;;;17.16;100.00;100075.35;109570;1253;60175;-63
2023/09/18 00:34:03;;;;;;;22.70;10.40;;;;;;;17.16;100.00;100074.63;109448;1253;72247;-64
2023/09/18 00:36:50;;;;;;;19.40;10.40;;;;;;;17.16;100.00;100072.14;109586;1254;66390;-63
2023/09/18 00:39:36;;;;;;;21.00;10.20;;;;;;;17.13;100.00;100067.20;109562;1253;73445;-64
2023/09/18 00:42:24;;;;;;;18.60;10.10;;;;;;;17.11;100.00;100065.86;109549;1254;59498;-64
2023/09/18 00:45:11;;;;;;;20.10;11.20;;;;;;;17.06;100.00;100063.45;109537;1253;61052;-64
2023/09/18 00:47:57;;;;;;;21.00;10.80;;;;;;;17.03;100.00;100065.77;109601;1252;72032;-64
2023/09/18 00:50:46;;;;;;;20.50;11.60;;;;;;;17.00;100.00;100070.40;109587;1253;66531;-64
2023/09/18 00:53:32;;;;;;;20.60;11.10;;;;;;;16.97;100.00;100073.55;109474;1253;70920;-63
2023/09/18 00:56:20;;;;;;;20.80;11.10;;;;;;;16.95;100.00;100075.53;109549;1253;60575;-65
2023/09/18 00:59:10;;;;;;;22.20;12.00;;;;;;;16.94;100.00;100071.71;109439;1253;59341;-65
2023/09/18 01:01:56;;;;;;;23.20;12.20;;;;;;;16.93;100.00;100073.43;109474;1254;73929;-63
2023/09/18 01:04:44;;;;;;;22.40;11.80;;;;;;;16.91;100.00;100076.31;109384;1253;67565;-64
2023/09/18 01:07:29;;;;;;;21.30;11.90;;;;;;;16.88;100.00;100071.29;109434;1253;70995;-64
2023/09/18 01:10:16;;;;;;;24.30;11.90;;;;;;;16.87;100.00;100069.58;109544;1253;59634;-63
2023/09/18 01:13:16;;;;;;;21.80;12.20;;;;;;;16.87;100.00;100066.39;109294;1254;61055;-64
2023/09/18 01:16:30;;;;;;;20.50;11.20;;;;;;;16.88;100.00;100063.59;109273;1255;73429;-64
2023/09/18 01:19:17;;;;;;;22.60;12.70;;;;;;;16.87;100.00;100061.09;109257;1254;68779;-65
2023/09/18 01:22:06;;;;;;;21.20;11.90;;;;;;;16.88;100.00;100056.56;109504;1253;72581;-65
2023/09/18 01:24:53;;;;;;;22.80;12.60;;;;;;;16.88;100.00;100051.92;109517;1253;60474;-64
2023/09/18 01:27:40;;;;;;;24.80;12.60;;;;;;;16.87;100.00;100046.50;109533;1252;60416;-63
2023/09/18 01:30:29;;;;;;;22.70;12.70;;;;;;;16.85;100.00;100044.11;109536;1253;72932;-64
2023/09/18 01:33:16;;;;;;;21.40;12.20;;;;;;;16.83;100.00;100038.80;109576;1253;66964;-63
2023/09/18 01:36:04;;;;;;;22.60;12.60;;;;;;;16.80;100.00;100033.29;109338;1252;73754;-63
2023/09/18 01:38:52;;;;;;;21.60;12.10;;;;;;;16.79;100.00;100033.68;109354;1252;59471;-64
2023/09/18 01:41:40;;;;;;;21.00;11.20;;;;;;;16.73;100.00;100027.88;109524;1256;60193;-64
2023/09/18 01:44:26;;;;;;;22.90;12.10;;;;;;;16.72;100.00;100035.32;109517;1253;72147;-64
2023/09/18 01:47:17;;;;;;;22.30;11.70;;;;;;;16.67;100.00;100034.68;109349;1252;66727;-63
2023/09/18 01:50:07;;;;;;;19.20;10.80;;;;;;;16.64;100.00;100031.63;109241;1253;73635;-64
2023/09/18 01:52:54;;;;;;;19.20;11.00;;;;;;;16.62;100.00;100026.95;109348;1253;60746;-65
2023/09/18 01:55:41;;;;;;;20.00;11.60;;;;;;;16.59;100.00;100017.99;109530;1256;60386;-65
2023/09/18 01:58:27;;;;;;;21.60;11.70;;;;;;;16.56;100.00;100017.06;109351;1253;72958;-64
2023/09/18 02:01:14;;;;;;;20.00;11.70;;;;;;;16.52;100.00;100014.43;109562;1253;67782;-65
2023/09/18 02:04:01;;;;;;;20.60;11.60;;;;;;;16.49;100.00;100007.90;109349;1253;73220;-65
2023/09/18 02:07:07;;;;;;;20.60;11.80;;;;;;;16.46;100.00;100004.64;109485;1253;58270;-66
2023/09/18 02:09:54;;;;;;;20.80;11.60;;;;;;;16.44;100.00;100010.92;109451;1253;60411;-63
2023/09/18 02:12:41;;;;;;;18.50;10.80;;;;;;;16.42;100.00;100007.52;109617;1256;71998;-64
2023/09/18 02:15:27;;;;;;;18.20;11.50;;;;;;;16.41;100.00;100005.34;109551;1252;67906;-64
2023/09/18 02:18:15;;;;;;;20.20;10.90;;;;;;;16.39;100.00;100004.61;109444;1254;71601;-64
2023/09/18 02:21:02;;;;;;;20.80;11.10;;;;;;;16.39;100.00;100004.32;109549;1253;60684;-64
2023/09/18 02:23:51;;;;;;;22.20;11.50;;;;;;;16.36;100.00;100001.55;109621;1253;61084;-63
2023/09/18 02:26:38;;;;;;;19.40;11.40;;;;;;;16.34;100.00;100005.48;109455;1254;72686;-63
2023/09/18 02:29:24;;;;;;;19.40;11.60;;;;;;;16.34;100.00;100008.02;109614;1254;67953;-62
2023/09/18 02:32:11;;;;;;;20.80;11.40;;;;;;;16.33;100.00;100010.39;109509;1254;72991;-64
2023/09/18 02:34:57;;;;;;;19.00;10.60;;;;;;;16.28;100.00;100001.66;109563;1256;58253;-62
2023/09/18 02:37:44;;;;;;;20.70;11.20;;;;;;;16.31;100.00;100003.52;109574;1254;61384;-64
2023/09/18 02:40:30;;;;;;;25.00;12.60;;;;;;;16.29;100.00;99999.52;109536;1252;72859;-63
2023/09/18 02:43:17;;;;;;;24.80;13.20;;;;;;;16.26;100.00;100000.41;109456;1254;66736;-63
2023/09/18 02:46:05;;;;;;;24.60;12.70;;;;;;;16.23;100.00;99997.30;109539;1254;72752;-63
2023/09/18 02:48:52;;;;;;;22.50;11.80;;;;;;;16.20;100.00;100000.38;109541;1253;60615;-64
2023/09/18 02:51:39;;;;;;;21.40;12.20;;;;;;;16.17;100.00;99996.98;109483;1253;60040;-63
2023/09/18 02:54:25;;;;;;;22.00;12.00;;;;;;;16.16;100.00;99996.39;109598;1253;73961;-63
2023/09/18 02:57:13;;;;;;;23.70;12.70;;;;;;;16.16;100.00;99989.48;109570;1254;67902;-63
2023/09/18 02:59:59;;;;;;;25.30;13.00;;;;;;;16.15;100.00;99984.14;109531;1256;71842;-63
2023/09/18 03:02:45;;;;;;;24.50;13.10;;;;;;;16.15;100.00;99980.94;109501;1253;59272;-63
2023/09/18 03:05:32;;;;;;;23.80;13.00;;;;;;;16.16;100.00;99986.56;109462;1253;60341;-65
2023/09/18 03:08:18;;;;;;;23.90;12.40;;;;;;;16.17;100.00;99985.95;109559;1253;73112;-64
2023/09/18 03:11:13;;;;;;;25.20;12.90;;;;;;;16.15;100.00;99980.23;109280;1260;67820;-64
2023/09/18 03:13:59;;;;;;;22.20;11.50;;;;;;;16.12;100.00;99980.34;109156;1253;73888;-64
2023/09/18 03:16:46;;;;;;;24.50;13.00;;;;;;;16.10;100.00;99975.55;109477;1255;59554;-64
2023/09/18 03:19:33;;;;;;;27.00;13.40;;;;;;;16.09;100.00;99976.23;109309;1254;60043;-63
2023/09/18 03:22:19;;;;;;;23.60;13.10;;;;;;;16.06;100.00;99971.35;109350;1254;71253;-63
2023/09/18 03:25:07;;;;;;;21.40;12.40;;;;;;;16.01;100.00;99970.17;109427;1253;68084;-63
2023/09/18 03:27:55;;;;;;;23.10;12.40;;;;;;;15.99;100.00;99967.57;109473;1254;71072;-63
2023/09/18 03:30:44;;;;;;;22.40;11.80;;;;;;;15.99;100.00;99963.82;109240;1254;59234;-62
2023/09/18 03:33:30;;;;;;;21.40;12.60;;;;;;;15.99;100.00;99957.69;109291;1254;61335;-62
2023/09/18 03:36:16;;;;;;;23.90;12.10;;;;;;;15.95;100.00;99958.49;109474;1254;73885;-64
2023/09/18 03:39:04;;;;;;;21.20;12.50;;;;;;;15.91;100.00;99952.63;109498;1253;66696;-62
2023/09/18 03:41:51;;;;;;;22.50;12.30;;;;;;;15.89;100.00;99952.14;109343;1254;71415;-64
2023/09/18 03:44:37;;;;;;;21.10;12.50;;;;;;;15.86;100.00;99947.96;109228;1254;60680;-64
2023/09/18 03:47:23;;;;;;;21.10;11.90;;;;;;;15.85;100.00;99948.24;109259;1253;59135;-63
2023/09/18 03:50:11;;;;;;;21.50;12.90;;;;;;;15.86;100.00;99942.95;109328;1254;72916;-63
2023/09/18 03:52:58;;;;;;;21.80;12.60;;;;;;;15.86;100.00;99940.15;109322;1257;67693;-66
2023/09/18 03:55:44;;;;;;;25.40;12.60;;;;;;;15.85;100.00;99941.26;109496;1254;73739;-64
2023/09/18 03:58:30;;;;;;;21.70;12.40;;;;;;;15.86;100.00;99936.33;109490;1254;59733;-64
2023/09/18 04:01:16;;;;;;;22.00;13.00;;;;;;;15.85;100.00;99934.13;109286;1254;60342;-63
2023/09/18 04:04:03;;;;;;;20.90;12.70;;;;;;;15.82;100.00;99932.23;109319;1254;70871;-64
2023/09/18 04:06:51;;;;;;;19.70;11.50;;;;;;;15.79;100.00;99924.46;109485;1254;66092;-62
2023/09/18 04:09:37;;;;;;;22.30;12.20;;;;;;;15.77;100.00;99920.02;109375;1253;73762;-64
2023/09/18 04:12:25;;;;;;;22.10;12.30;;;;;;;15.76;100.00;99914.76;109467;1254;57554;-65
2023/09/18 04:15:15;;;;;;;23.50;12.00;;;;;;;15.75;100.00;99909.73;109426;1254;61037;-66
2023/09/18 04:18:02;;;;;;;22.90;12.30;;;;;;;15.74;100.00;99909.59;109272;1253;71933;-67
2023/09/18 04:20:50;;;;;;;24.10;13.00;;;;;;;15.72;100.00;99910.04;109170;1254;66696;-65
2023/09/18 04:23:37;;;;;;;22.20;12.30;;;;;;;15.70;100.00;99905.52;109482;1254;73962;-62
2023/09/18 04:26:24;;;;;;;21.70;12.30;;;;;;;15.68;100.00;99904.13;109402;1253;58139;-63
2023/09/18 04:29:11;;;;;;;21.50;13.20;;;;;;;15.68;100.00;99896.86;109393;1254;60112;-65
2023/09/18 04:31:58;;;;;;;21.50;11.50;;;;;;;15.68;100.00;99896.61;109209;1253;73052;-64
2023/09/18 04:34:45;;;;;;;22.50;12.30;;;;;;;15.70;100.00;99897.54;109331;1253;66789;-64
2023/09/18 04:37:37;;;;;;;20.10;11.60;;;;;;;15.70;100.00;99891.91;109316;1253;187439;-65
2023/09/18 04:40:24;;;;;;;20.00;11.20;;;;;;;15.72;100.00;99889.61;109370;1253;58041;-65
2023/09/18 04:43:11;;;;;;;22.40;12.20;;;;;;;15.71;100.00;99882.87;109367;1253;61473;-64
2023/09/18 04:45:58;;;;;;;22.10;11.60;;;;;;;15.71;100.00;99879.84;109357;1253;71804;-68
2023/09/18 04:48:44;;;;;;;18.90;11.50;;;;;;;15.72;100.00;99880.65;109338;1253;67738;-65
2023/09/18 04:51:33;;;;;;;19.10;11.00;;;;;;;15.74;100.00;99875.08;109383;1253;71844;-64
2023/09/18 04:54:19;;;;;;;19.40;10.90;;;;;;;15.79;100.00;99873.87;109112;1253;59791;-64
2023/09/18 04:57:05;;;;;;;23.00;11.20;;;;;;;15.84;100.00;99876.23;109315;1253;61255;-65
2023/09/18 04:59:51;;;;;;;23.40;12.50;;;;;;;15.87;100.00;99870.21;109412;1254;73040;-65
2023/09/18 05:02:51;;;;;;;26.70;12.30;;;;;;;15.91;100.00;99863.66;109344;1253;69058;-67
2023/09/18 05:05:38;;;;;;;23.10;11.60;;;;;;;15.97;100.00;99863.29;109223;1253;72638;-66
2023/09/18 05:08:25;;;;;;;20.10;11.70;;;;;;;16.03;100.00;99865.34;109325;1253;59460;-65
2023/09/18 05:11:11;;;;;;;19.10;11.00;;;;;;;16.07;100.00;99871.70;109142;1254;61105;-67
2023/09/18 05:14:00;;;;;;;21.20;11.30;;;;;;;16.15;100.00;99871.48;109399;1253;73093;-65
2023/09/18 05:16:46;;;;;;;21.90;11.40;;;;;;;16.24;100.00;99873.58;109389;1254;67681;-65
2023/09/18 05:19:33;;;;;;;21.80;11.10;;;;;;;16.34;100.00;99876.59;109391;1253;73692;-64
2023/09/18 05:22:19;;;;;;;20.00;10.60;;;;;;;16.45;100.00;99873.33;109233;1254;57368;-66
2023/09/18 05:25:06;;;;;;;18.70;10.80;;;;;;;16.54;100.00;99869.15;109371;1254;60532;-66
2023/09/18 05:27:57;;;;;;;17.80;10.00;;;;;;;16.61;100.00;99864.10;109410;1254;73903;-65
2023/09/18 05:30:43;;;;;;;18.00;10.40;;;;;;;16.70;100.00;99860.98;109434;1254;69180;-65
2023/09/18 05:33:29;;;;;;;20.60;10.50;;;;;;;16.80;100.00;99860.66;109452;1254;72850;-68
2023/09/18 05:36:16;;;;;;;19.00;10.50;;;;;;;16.88;100.00;99858.21;109381;1254;60965;-65
2023/09/18 05:39:06;;;;;;;17.80;10.60;;;;;;;16.95;100.00;99851.58;109183;1254;60556;-65
2023/09/18 05:41:53;;;;;;;20.20;10.00;;;;;;;17.03;100.00;99858.29;109360;1253;72034;-64
2023/09/18 05:44:40;;;;;;;18.30;10.80;;;;;;;17.09;100.00;99860.08;109426;1253;69002;-63
2023/09/18 05:47:26;;;;;;;16.40;9.30;;;;;;;17.18;100.00;99858.62;109425;1254;71253;-64
2023/09/18 05:50:15;;;;;;;17.90;9.00;;;;;;;17.23;100.00;99859.11;109378;1254;59601;-66
2023/09/18 05:53:05;;;;;;;16.00;9.20;;;;;;;17.29;100.00;99860.27;109197;1254;60159;-65
2023/09/18 05:55:52;;;;;;;15.60;8.80;;;;;;;17.35;100.00;99856.55;109359;1254;74101;-66
2023/09/18 05:58:39;;;;;;;12.50;7.60;;;;;;;17.43;100.00;99860.38;109413;1254;69253;-65
2023/09/18 06:01:25;;;;;;;15.40;8.20;;;;;;;17.49;100.00;99857.85;109279;1253;72641;-63
2023/09/18 06:04:12;;;;;;;14.90;7.30;;;;;;;17.55;100.00;99855.97;109426;1252;59207;-65
2023/09/18 06:06:59;;;;;;;15.80;8.60;;;;;;;17.61;100.00;99857.60;109402;1252;60392;-67
2023/09/18 06:09:45;;;;;;;14.50;8.00;;;;;;;17.69;100.00;99859.64;109375;1253;72876;-67
2023/09/18 06:12:32;;;;;;;13.40;7.20;;;;;;;17.81;100.00;99858.55;109348;1253;68330;-67
2023/09/18 06:15:19;;;;;;;14.30;8.20;;;;;;;17.92;100.00;99855.55;109481;1252;72730;-64
2023/09/18 06:18:06;;;;;;;14.30;7.80;;;;;;;18.05;100.00;99856.16;109546;1253;58428;-65
2023/09/18 06:20:52;;;;;;;13.60;7.50;;;;;;;18.19;100.00;99851.94;109586;1253;58599;-64
2023/09/18 06:23:38;;;;;;;15.10;8.40;;;;;;;18.36;99.58;99852.89;109428;1254;73089;-66
2023/09/18 06:26:25;;;;;;;16.90;9.10;;;;;;;18.64;98.57;99850.38;109650;1253;66585;-69
2023/09/18 06:29:11;;;;;;;13.70;7.80;;;;;;;19.19;96.40;99845.92;109552;1253;71210;-64
2023/09/18 06:31:58;;;;;;;14.10;8.30;;;;;;;20.25;92.59;99836.63;109524;1253;58349;-66
2023/09/18 06:34:45;;;;;;;14.30;7.50;;;;;;;21.75;86.81;99832.80;109381;1254;57780;-67
2023/09/18 06:37:31;;;;;;;12.90;7.30;;;;;;;23.24;82.23;99830.42;109434;1253;71937;-67
2023/09/18 06:40:17;;;;;;;13.50;7.90;;;;;;;24.54;74.05;99820.57;109421;1253;67916;-67
2023/09/18 06:43:04;;;;;;;12.40;6.70;;;;;;;25.47;67.50;99816.77;109375;1254;73593;-69
2023/09/18 06:45:51;;;;;;;12.20;6.80;;;;;;;26.39;62.01;99811.88;109140;1254;59212;-69
2023/09/18 06:48:37;;;;;;;11.80;6.80;;;;;;;26.98;59.01;99804.24;109235;1254;60380;-66
2023/09/18 06:51:23;;;;;;;11.30;6.40;;;;;;;27.65;56.17;99803.67;109427;1254;74091;-67
2023/09/18 06:54:28;;;;;;;13.20;6.60;;;;;;;28.74;53.15;99795.77;109447;1253;66450;-66
2023/09/18 06:57:14;;;;;;;11.70;6.50;;;;;;;29.58;51.10;99797.37;109374;1254;73517;-68
2023/09/18 07:00:01;;;;;;;11.40;6.40;;;;;;;30.43;48.90;99798.97;109411;1254;57323;-67
2023/09/18 07:02:47;;;;;;;11.10;6.60;;;;;;;31.28;45.77;99798.39;109229;1254;59051;-65
2023/09/18 07:05:33;;;;;;;11.70;5.50;;;;;;;31.84;44.13;99800.75;109279;1254;74122;-67
2023/09/18 07:08:22;;;;;;;10.80;6.40;;;;;;;32.29;41.03;99804.11;109257;1253;67596;-66
2023/09/18 07:11:09;;;;;;;11.90;6.50;;;;;;;32.53;39.47;99802.20;109388;1254;72496;-66
2023/09/18 07:13:56;;;;;;;10.80;5.70;;;;;;;32.66;38.94;99799.32;109374;1254;58997;-66
2023/09/18 07:16:43;;;;;;;9.90;5.50;;;;;;;33.06;38.92;99787.95;109417;1254;58334;-65
2023/09/18 07:19:29;;;;;;;10.70;6.00;;;;;;;33.52;38.08;99787.83;109337;1254;73097;-67
2023/09/18 07:22:16;;;;;;;9.90;6.00;;;;;;;33.65;36.13;99787.96;109426;1254;66583;-66
2023/09/18 07:25:02;;;;;;;10.40;6.20;;;;;;;33.79;36.00;99778.79;109308;1254;72926;-65
2023/09/18 07:27:49;;;;;;;12.10;5.60;;;;;;;34.04;36.23;99777.33;109428;1254;57727;-67
2023/09/18 07:30:37;;;;;;;10.40;5.30;;;;;;;34.31;35.19;99776.99;109177;1257;60677;-64
2023/09/18 07:33:23;;;;;;;10.40;5.40;;;;;;;34.55;34.84;99777.75;109402;1253;73205;-66
2023/09/18 07:36:10;;;;;;;12.30;5.70;;;;;;;34.82;34.09;99769.95;109407;1253;68141;-68
2023/09/18 07:38:56;;;;;;;10.10;5.20;;;;;;;35.17;33.71;99766.06;109235;1254;72369;-66
2023/09/18 07:41:42;;;;;;;12.70;5.40;;;;;;;35.11;32.81;99766.19;109375;1254;57626;-64
2023/09/18 07:44:31;;;;;;;10.90;5.00;;;;;;;35.21;32.89;99765.14;109345;1254;61071;-65
2023/09/18 07:47:19;;;;;;;9.60;5.30;;;;;;;35.54;33.00;99768.16;109409;1253;71220;-64
2023/09/18 07:50:06;;;;;;;9.20;4.90;;;;;;;35.85;32.12;99767.99;109342;1254;67497;-67
2023/09/18 07:52:52;;;;;;;9.50;5.30;;;;;;;35.94;31.47;99768.92;109142;1254;72667;-66
2023/09/18 07:55:38;;;;;;;7.90;4.50;;;;;;;36.07;31.57;99763.18;109373;1253;57759;-64
2023/09/18 07:58:27;;;;;;;10.20;5.40;;;;;;;36.28;30.96;99756.81;109419;1253;60546;-68
2023/09/18 08:01:16;;;;;;;9.60;5.10;;;;;;;36.08;30.95;99755.64;109443;1253;71612;-67
2023/09/18 08:04:02;;;;;;;9.70;4.30;;;;;;;36.00;30.35;99749.88;109188;1254;69216;-64
2023/09/18 08:06:49;;;;;;;9.00;4.80;;;;;;;35.97;30.82;99748.27;109412;1254;73574;-65
2023/09/18 08:09:38;;;;;;;8.90;4.30;;;;;;;36.14;30.81;99742.55;109396;1253;57880;-66
2023/09/18 08:12:25;;;;;;;10.30;5.30;;;;;;;36.13;30.42;99745.48;109317;1254;59033;-65
2023/09/18 08:15:11;;;;;;;9.30;4.80;;;;;;;36.04;30.59;99743.29;109253;1254;73930;-66
2023/09/18 08:17:58;;;;;;;9.60;4.90;;;;;;;36.22;30.54;99737.95;109410;1253;68762;-65
2023/09/18 08:20:46;;;;;;;9.50;4.40;;;;;;;36.62;29.45;99730.39;109467;1252;72777;-66
2023/09/18 08:23:33;;;;;;;9.30;4.00;;;;;;;36.75;28.87;99726.17;109508;1252;57600;-65
2023/09/18 08:26:19;;;;;;;9.30;4.40;;;;;;;36.71;29.19;99719.51;109546;1252;59099;-65
2023/09/18 08:29:05;;;;;;;14.20;11.40;;;;;;;36.67;28.99;99714.63;109502;1252;73106;-67
2023/09/18 08:31:51;;;;;;;8.50;4.60;;;;;;;36.86;29.13;99711.64;109377;1252;67886;-66
2023/09/18 08:34:38;;;;;;;8.30;4.10;;;;;;;36.83;28.57;99712.57;109424;1252;71222;-68
2023/09/18 08:37:24;;;;;;;8.30;3.90;;;;;;;36.88;28.81;99706.84;109521;1252;58826;-65
2023/09/18 08:40:17;;;;;;;9.20;4.20;;;;;;;37.17;28.49;99710.08;109517;1253;61685;-65
2023/09/18 08:43:05;;;;;;;8.70;4.40;;;;;;;37.38;27.95;99708.10;108945;1256;73105;-64
2023/09/18 08:45:53;;;;;;;9.20;4.00;;;;;;;37.43;27.91;99704.06;109152;1256;67798;-65
2023/09/18 08:48:41;;;;;;;7.40;3.40;;;;;;;37.12;27.93;99703.63;109124;1256;72484;-64
2023/09/18 08:51:28;;;;;;;9.00;3.80;;;;;;;37.08;28.02;99703.25;109099;1256;58823;-66
2023/09/18 08:54:15;;;;;;;8.10;3.60;;;;;;;37.11;28.44;99701.88;109100;1257;61232;-67
2023/09/18 08:57:07;;;;;;;8.90;3.80;;;;;;;37.44;28.35;99695.64;109027;1257;72872;-63
2023/09/18 08:59:55;;;;;;;8.80;4.10;;;;;;;37.65;27.38;99695.13;109093;1256;66703;-66
2023/09/18 09:02:41;;;;;;;7.60;3.80;;;;;;;37.60;27.24;99694.02;109038;1256;72464;-69
2023/09/18 09:05:28;;;;;;;10.00;3.80;;;;;;;37.16;27.82;99695.91;109103;1257;57815;-66
2023/09/18 09:08:15;;;;;;;9.10;4.00;;;;;;;37.00;28.55;99684.60;109146;1257;60535;-67
2023/09/18 09:11:03;;;;;;;8.90;4.40;;;;;;;37.19;28.59;99687.14;109035;1257;71827;-66
2023/09/18 09:14:27;;;;;;;8.40;4.10;;;;;;;37.43;28.50;99683.38;109111;1256;68068;-67
2023/09/18 09:17:18;;;;;;;7.70;3.90;;;;;;;37.19;28.16;99673.92;109081;1256;73908;-64
2023/09/18 09:20:11;;;;;;;7.80;4.00;;;;;;;36.87;28.70;99665.39;109079;1256;57680;-65
2023/09/18 09:23:03;;;;;;;11.00;4.20;;;;;;;36.68;28.87;99662.89;109011;1257;60658;-66
2023/09/18 09:25:52;;;;;;;8.50;4.00;;;;;;;36.51;28.78;99657.36;109063;1256;71730;-66
2023/09/18 09:28:38;;;;;;;7.80;3.40;;;;;;;36.55;29.43;99648.45;109110;1256;68697;-64
2023/09/18 09:31:30;;;;;;;8.50;4.10;;;;;;;36.70;28.97;99645.02;109181;1256;72981;-63
2023/09/18 09:34:29;;;;;;;9.50;3.90;;;;;;;36.60;28.62;99643.94;109377;1253;57351;-64
2023/09/18 09:37:16;;;;;;;7.80;3.80;;;;;;;36.73;28.40;99642.48;109556;1253;60521;-65
2023/09/18 09:40:10;;;;;;;9.70;4.20;;;;;;;36.95;28.67;99643.27;109571;1251;74079;-63
2023/09/18 09:43:00;;;;;;;7.40;3.50;;;;;;;36.99;28.14;99644.86;109495;1251;67907;-65
2023/09/18 09:45:46;;;;;;;8.40;3.50;;;;;;;37.09;28.01;99641.23;109533;1251;73576;-64
2023/09/18 09:48:32;;;;;;;9.60;3.70;;;;;;;37.30;27.78;99638.27;109572;1251;57567;-65
2023/09/18 09:51:21;;;;;;;8.30;3.70;;;;;;;37.55;27.43;99634.61;109403;1251;61396;-69
2023/09/18 09:54:11;;;;;;;7.60;3.50;;;;;;;37.70;27.17;99633.04;109477;1251;73938;-63
2023/09/18 09:57:02;;;;;;;6.90;3.40;;;;;;;37.72;26.97;99624.28;109562;1251;68045;-63
2023/09/18 09:59:48;;;;;;;8.30;3.60;;;;;;;37.75;26.76;99617.48;109405;1251;73442;-65
2023/09/18 10:02:35;;;;;;;8.20;3.60;;;;;;;37.45;27.04;99612.39;109569;1251;57643;-65
2023/09/18 10:05:25;;;;;;;7.60;3.40;;;;;;;37.17;27.53;99602.70;109497;1254;60108;-63
2023/09/18 10:08:27;;;;;;;8.60;3.70;;;;;;;36.97;27.60;99598.59;109448;1253;73741;-64
2023/09/18 10:11:16;;;;;;;10.30;3.90;;;;;;;36.58;27.89;99595.48;109582;1251;67903;-64
2023/09/18 10:14:17;;;;;;;9.20;3.90;;;;;;;36.51;28.11;99589.29;109524;1251;72557;-65
2023/09/18 10:17:19;;;;;;;9.10;3.70;;;;;;;36.70;28.22;99590.61;109438;1251;57730;-64
2023/09/18 10:20:10;;;;;;;9.40;3.70;;;;;;;37.27;27.85;99583.64;109573;1251;59130;-63
2023/09/18 10:23:01;;;;;;;7.70;3.70;;;;;;;37.43;27.40;99583.20;109481;1251;73088;-65
2023/09/18 10:25:50;;;;;;;7.90;3.70;;;;;;;37.78;27.35;99574.34;109567;1251;68802;-64
2023/09/18 10:28:37;;;;;;;8.30;4.00;;;;;;;38.17;26.82;99576.38;109470;1252;71388;-64
2023/09/18 10:31:28;;;;;;;7.40;3.50;;;;;;;38.14;26.56;99573.89;109403;1252;57781;-66
2023/09/18 10:34:17;;;;;;;9.20;3.70;;;;;;;37.56;26.95;99568.77;109363;1253;58790;-64
2023/09/18 10:37:07;;;;;;;8.10;3.60;;;;;;;37.71;27.28;99561.27;109488;1252;73131;-69
2023/09/18 10:39:56;;;;;;;8.10;3.70;;;;;;;37.49;27.29;99571.42;109495;1252;67941;-64
2023/09/18 10:42:46;;;;;;;8.10;3.90;;;;;;;37.03;27.59;99575.52;109410;1252;73442;-64
2023/09/18 10:45:32;;;;;;;7.90;3.40;;;;;;;36.56;28.47;99563.77;109380;1255;57926;-65
2023/09/18 10:48:20;;;;;;;8.60;3.70;;;;;;;36.69;28.47;99554.25;109480;1252;61382;-65
2023/09/18 10:51:07;;;;;;;9.50;4.40;;;;;;;36.41;28.77;99555.88;109465;1252;74356;-65
2023/09/18 10:53:56;;;;;;;7.60;4.00;;;;;;;36.08;29.21;99545.72;109438;1253;67809;-65
2023/09/18 10:56:42;;;;;;;7.50;3.30;;;;;;;35.94;29.61;99531.90;109330;1252;72849;-64
2023/09/18 10:59:31;;;;;;;9.00;3.80;;;;;;;35.77;29.78;99540.83;109485;1252;57775;-64
2023/09/18 11:02:17;;;;;;;9.90;4.20;;;;;;;35.34;30.50;99542.98;109437;1252;60365;-64
2023/09/18 11:05:05;;;;;;;10.00;4.40;;;;;;;34.94;31.14;99542.13;109461;1252;72980;-63
2023/09/18 11:08:35;;;;;;;8.50;3.70;;;;;;;35.10;31.29;99533.36;109502;1252;69486;-63
2023/09/18 11:11:25;;;;;;;8.50;4.10;;;;;;;35.30;30.87;99533.89;109474;1252;72956;-64
2023/09/18 11:14:12;;;;;;;7.50;3.90;;;;;;;34.90;31.57;99535.92;109438;1252;57315;-63
2023/09/18 11:16:58;;;;;;;7.70;4.30;;;;;;;34.53;31.94;99531.60;109427;1252;59926;-64
2023/09/18 11:19:46;;;;;;;8.40;4.10;;;;;;;34.47;32.02;99525.96;109400;1252;71834;-64
2023/09/18 11:22:32;;;;;;;10.40;4.70;;;;;;;33.66;33.06;99518.86;109181;1253;66500;-64
2023/09/18 11:25:34;;;;;;;7.90;4.00;;;;;;;33.77;33.33;99509.86;109469;1252;72641;-64
2023/09/18 11:28:26;;;;;;;8.40;4.20;;;;;;;32.83;34.39;99506.45;109494;1252;57950;-63
2023/09/18 11:31:12;;;;;;;7.80;4.10;;;;;;;31.73;36.16;99502.85;109463;1253;59768;-64
2023/09/18 11:33:58;;;;;;;9.80;4.40;;;;;;;31.85;35.93;99495.82;109517;1252;72692;-63
2023/09/18 11:36:45;;;;;;;7.80;4.00;;;;;;;32.00;36.02;99490.10;109572;1252;68781;-65
2023/09/18 11:39:40;;;;;;;10.10;4.10;;;;;;;31.57;36.22;99490.38;109517;1252;72608;-68
2023/09/18 11:42:28;;;;;;;9.20;4.20;;;;;;;31.00;37.56;99485.58;109404;1252;57222;-64
2023/09/18 11:45:18;;;;;;;8.60;4.40;;;;;;;30.53;39.07;99491.31;109551;1253;60092;-67
2023/09/18 11:48:05;;;;;;;8.70;4.10;;;;;;;30.09;39.74;99480.75;109314;1252;72007;-63
2023/09/18 11:50:54;;;;;;;7.40;3.90;;;;;;;29.71;39.96;99473.55;109235;1252;66671;-66
2023/09/18 11:53:43;;;;;;;19.00;4.30;;;;;;;29.67;40.46;99471.92;109426;1253;73346;-64
2023/09/18 11:56:30;;;;;;;7.40;3.70;;;;;;;29.64;40.22;99472.55;109477;1253;57749;-67
2023/09/18 11:59:19;;;;;;;8.60;3.90;;;;;;;29.75;39.82;99470.52;109475;1253;58969;-63
2023/09/18 12:02:06;;;;;;;8.70;4.20;;;;;;;29.88;40.10;99464.01;109527;1253;72856;-64
2023/09/18 12:04:53;;;;;;;8.80;4.30;;;;;;;30.22;40.09;99463.08;109613;1252;67735;-64
2023/09/18 12:07:46;;;;;;;9.20;3.70;;;;;;;30.29;39.63;99464.87;109430;1252;73458;-65
2023/09/18 12:10:33;;;;;;;9.80;4.50;;;;;;;30.08;39.12;99458.90;109432;1252;57652;-64
2023/09/18 12:13:21;;;;;;;8.80;3.80;;;;;;;30.12;39.58;99452.95;109449;1252;61172;-65
2023/09/18 12:16:09;;;;;;;9.50;3.80;;;;;;;30.02;39.28;99448.27;109505;1252;72892;-63
2023/09/18 12:18:56;;;;;;;8.10;4.00;;;;;;;29.60;39.77;99440.02;109555;1253;66379;-64
2023/09/18 12:21:47;;;;;;;8.80;3.90;;;;;;;29.22;40.70;99447.11;109524;1253;73002;-64
2023/09/18 12:24:33;;;;;;;8.60;4.30;;;;;;;28.92;41.26;99436.52;109304;1253;57349;-64
2023/09/18 12:27:19;;;;;;;10.80;4.00;;;;;;;28.77;42.05;99427.43;109520;1252;58740;-65
2023/09/18 12:30:08;;;;;;;11.40;4.20;;;;;;;28.63;42.09;99427.52;109438;1254;73844;-63
2023/09/18 12:32:57;;;;;;;9.00;4.20;;;;;;;28.34;42.20;99429.25;109431;1254;67565;-63
2023/09/18 12:35:46;;;;;;;8.20;4.20;;;;;;;27.94;42.69;99432.83;109281;1253;73518;-65
2023/09/18 12:38:33;;;;;;;8.50;4.10;;;;;;;27.67;42.78;99423.70;109415;1252;57859;-65
2023/09/18 12:41:21;;;;;;;10.80;4.30;;;;;;;27.40;43.28;99416.74;109555;1252;60114;-62
2023/09/18 12:44:07;;;;;;;11.20;3.80;;;;;;;27.16;43.18;99413.12;109547;1252;73144;-63
2023/09/18 12:46:54;;;;;;;7.60;4.00;;;;;;;27.04;43.31;99419.44;109480;1253;68257;-64